createdAt,value
2018-01-25T00:00:58.028Z,82.15
2018-01-25T00:01:58.048Z,82.53
2018-01-25T00:02:58.064Z,83.20
2018-01-25T00:03:58.083Z,83.11
2018-01-25T00:04:58.101Z,83.20
2018-01-25T00:05:58.120Z,83.01
2018-01-25T00:06:58.136Z,82.72
2018-01-25T00:07:58.148Z,82.91
2018-01-25T00:08:58.167Z,83.11
2018-01-25T00:09:58.183Z,83.11
2018-01-25T00:10:58.202Z,82.91
2018-01-25T00:11:58.220Z,82.82
2018-01-25T00:12:58.234Z,83.11
2018-01-25T00:13:58.253Z,82.63
2018-01-25T00:14:58.273Z,82.24
2018-01-25T00:15:58.287Z,82.15
2018-01-25T00:16:58.304Z,82.24
2018-01-25T00:17:58.320Z,82.24
2018-01-25T00:18:58.334Z,82.63
2018-01-25T00:19:58.357Z,82.43
2018-01-25T00:20:58.573Z,82.63
2018-01-25T00:21:58.387Z,82.72
2018-01-25T00:22:58.408Z,82.06
2018-01-25T00:23:58.422Z,82.34
2018-01-25T00:24:58.440Z,82.53
2018-01-25T00:25:58.455Z,82.24
2018-01-25T00:26:58.473Z,82.72
2018-01-25T00:27:58.490Z,82.15
2018-01-25T00:28:58.508Z,82.91
2018-01-25T00:29:58.527Z,82.43
2018-01-25T00:30:58.543Z,82.91
2018-01-25T00:31:58.559Z,82.72
2018-01-25T00:32:58.577Z,83.11
2018-01-25T00:33:58.591Z,83.20
2018-01-25T00:34:58.612Z,82.72
2018-01-25T00:35:58.629Z,82.72
2018-01-25T00:36:58.644Z,82.43
2018-01-25T00:37:58.664Z,82.15
2018-01-25T00:38:58.677Z,82.43
2018-01-25T00:39:58.692Z,82.53
2018-01-25T00:40:58.711Z,82.63
2018-01-25T00:41:58.726Z,82.15
2018-01-25T00:42:58.745Z,82.15
2018-01-25T00:43:58.762Z,82.82
2018-01-25T00:44:58.777Z,83.20
2018-01-25T00:45:58.796Z,82.72
2018-01-25T00:46:58.840Z,82.06
2018-01-25T00:47:58.828Z,82.72
2018-01-25T00:48:58.845Z,82.82
2018-01-25T00:49:58.862Z,83.01
2018-01-25T00:50:58.884Z,83.39
2018-01-25T00:51:58.895Z,82.72
2018-01-25T00:52:58.914Z,82.15
2018-01-25T00:53:58.934Z,82.63
2018-01-25T00:54:58.949Z,82.63
2018-01-25T00:55:58.968Z,82.24
2018-01-25T00:56:58.979Z,82.15
2018-01-25T00:57:59.001Z,82.24
2018-01-25T00:58:59.019Z,82.34
2018-01-25T00:59:59.039Z,82.34
2018-01-25T01:00:59.050Z,82.15
2018-01-25T01:01:59.065Z,82.24
2018-01-25T01:02:59.086Z,82.43
2018-01-25T01:03:59.101Z,82.06
2018-01-25T01:04:59.117Z,82.24
2018-01-25T01:05:59.133Z,82.15
2018-01-25T01:06:59.152Z,82.91
2018-01-25T01:07:59.168Z,82.91
2018-01-25T01:08:59.188Z,82.72
2018-01-25T01:09:59.202Z,82.34
2018-01-25T01:10:59.221Z,82.00
2018-01-25T01:11:59.237Z,82.34
2018-01-25T01:12:59.268Z,82.72
2018-01-25T01:13:59.270Z,82.15
2018-01-25T01:14:59.285Z,82.34
2018-01-25T01:15:59.304Z,82.24
2018-01-25T01:16:59.321Z,82.72
2018-01-25T01:17:59.338Z,82.63
2018-01-25T01:18:59.357Z,82.82
2018-01-25T01:19:59.373Z,82.06
2018-01-25T01:20:59.387Z,82.63
2018-01-25T01:21:59.405Z,82.34
2018-01-25T01:22:59.423Z,82.19
2018-01-25T01:23:59.443Z,82.06
2018-01-25T01:24:59.459Z,82.15
2018-01-25T01:25:59.472Z,82.06
2018-01-25T01:26:59.492Z,82.24
2018-01-25T01:27:59.513Z,82.34
2018-01-25T01:28:59.523Z,82.53
2018-01-25T01:29:59.542Z,82.43
2018-01-25T01:30:59.547Z,82.43
2018-01-25T01:31:59.562Z,82.34
2018-01-25T01:32:59.576Z,82.43
2018-01-25T01:33:59.596Z,82.53
2018-01-25T01:34:59.610Z,82.24
2018-01-25T01:35:59.631Z,82.34
2018-01-25T01:36:59.646Z,82.43
2018-01-25T01:37:59.664Z,82.34
2018-01-25T01:38:59.682Z,82.43
2018-01-25T01:39:59.703Z,82.15
2018-01-25T01:40:59.713Z,82.34
2018-01-25T01:41:59.730Z,82.24
2018-01-25T01:42:59.763Z,82.24
2018-01-25T01:43:59.780Z,82.72
2018-01-25T01:44:59.799Z,82.43
2018-01-25T01:45:59.813Z,82.15
2018-01-25T01:46:59.833Z,82.15
2018-01-25T01:47:59.857Z,82.43
2018-01-25T01:48:59.867Z,82.24
2018-01-25T01:49:59.881Z,82.72
2018-01-25T01:50:59.900Z,82.24
2018-01-25T01:51:59.920Z,82.24
2018-01-25T01:52:59.932Z,82.38
2018-01-25T01:53:59.952Z,82.43
2018-01-25T01:54:59.972Z,82.43
2018-01-25T01:55:59.983Z,82.15
2018-01-25T01:57:00.002Z,82.24
2018-01-25T01:58:00.028Z,82.06
2018-01-25T01:59:00.034Z,82.24
2018-01-25T02:00:00.071Z,82.24
2018-01-25T02:01:00.077Z,82.24
2018-01-25T02:02:00.090Z,81.96
2018-01-25T02:03:00.104Z,81.77
2018-01-25T02:04:00.122Z,82.15
2018-01-25T02:05:00.137Z,82.09
2018-01-25T02:06:00.156Z,81.67
2018-01-25T02:07:00.172Z,81.71
2018-01-25T02:08:00.193Z,81.90
2018-01-25T02:09:00.207Z,81.38
2018-01-25T02:10:00.223Z,82.09
2018-01-25T02:11:00.245Z,81.62
2018-01-25T02:12:00.258Z,81.43
2018-01-25T02:13:00.274Z,81.62
2018-01-25T02:14:00.293Z,81.81
2018-01-25T02:15:00.307Z,82.43
2018-01-25T02:16:00.326Z,82.24
2018-01-25T02:17:00.341Z,82.15
2018-01-25T02:18:00.359Z,82.24
2018-01-25T02:19:00.379Z,82.53
2018-01-25T02:20:00.395Z,82.53
2018-01-25T02:21:00.412Z,82.24
2018-01-25T02:22:00.468Z,82.38
2018-01-25T02:23:00.444Z,82.09
2018-01-25T02:24:00.468Z,82.09
2018-01-25T02:25:00.479Z,82.09
2018-01-25T02:26:00.498Z,82.00
2018-01-25T02:27:00.513Z,81.71
2018-01-25T02:28:00.529Z,82.24
2018-01-25T02:29:00.546Z,83.20
2018-01-25T02:30:00.564Z,82.63
2018-01-25T02:31:00.584Z,82.15
2018-01-25T02:32:00.602Z,82.48
2018-01-25T02:33:00.619Z,82.09
2018-01-25T02:34:00.630Z,82.09
2018-01-25T02:35:00.649Z,82.15
2018-01-25T02:36:00.666Z,82.34
2018-01-25T02:37:00.685Z,82.29
2018-01-25T02:38:00.703Z,82.38
2018-01-25T02:39:00.720Z,82.53
2018-01-25T02:40:00.734Z,82.34
2018-01-25T02:41:00.753Z,82.24
2018-01-25T02:42:00.768Z,82.06
2018-01-25T02:43:00.789Z,82.43
2018-01-25T02:44:00.806Z,82.53
2018-01-25T02:45:00.820Z,82.38
2018-01-25T02:46:00.837Z,82.34
2018-01-25T02:47:00.854Z,82.19
2018-01-25T02:48:00.873Z,82.09
2018-01-25T02:49:00.891Z,82.57
2018-01-25T02:50:00.910Z,82.76
2018-01-25T02:51:00.925Z,82.29
2018-01-25T02:52:00.945Z,82.29
2018-01-25T02:53:00.957Z,82.19
2018-01-25T02:54:00.976Z,82.72
2018-01-25T02:55:00.993Z,82.86
2018-01-25T02:56:01.013Z,82.95
2018-01-25T02:57:01.027Z,82.48
2018-01-25T02:58:01.064Z,82.38
2018-01-25T02:59:01.060Z,82.19
2018-01-25T03:00:01.081Z,82.57
2018-01-25T03:01:01.095Z,82.95
2018-01-25T03:02:01.113Z,82.19
2018-01-25T03:03:01.130Z,82.86
2018-01-25T03:04:01.144Z,82.95
2018-01-25T03:05:01.165Z,82.76
2018-01-25T03:06:01.180Z,83.11
2018-01-25T03:07:01.201Z,83.20
2018-01-25T03:08:01.214Z,83.39
2018-01-25T03:09:01.234Z,83.39
2018-01-25T03:10:01.251Z,83.29
2018-01-25T03:11:01.265Z,83.20
2018-01-25T03:12:01.280Z,83.58
2018-01-25T03:13:01.309Z,83.67
2018-01-25T03:14:01.317Z,83.87
2018-01-25T03:15:01.338Z,83.58
2018-01-25T03:16:01.352Z,83.77
2018-01-25T03:17:01.366Z,83.58
2018-01-25T03:18:01.383Z,83.39
2018-01-25T03:19:01.399Z,84.06
2018-01-25T03:20:01.419Z,83.39
2018-01-25T03:21:01.434Z,83.87
2018-01-25T03:22:01.453Z,85.11
2018-01-25T03:23:01.472Z,85.83
2018-01-25T03:24:01.486Z,86.59
2018-01-25T03:25:01.526Z,87.64
2018-01-25T03:26:01.520Z,88.31
2018-01-25T03:27:01.538Z,89.83
2018-01-25T03:28:01.556Z,89.36
2018-01-25T03:29:01.572Z,90.41
2018-01-25T03:30:01.593Z,90.59
2018-01-25T03:31:01.606Z,90.50
2018-01-25T03:32:01.622Z,90.12
2018-01-25T03:33:01.655Z,90.45
2018-01-25T03:34:01.656Z,91.03
2018-01-25T03:35:01.677Z,91.22
2018-01-25T03:36:01.691Z,91.41
2018-01-25T03:37:01.706Z,91.13
2018-01-25T03:38:01.723Z,90.74
2018-01-25T03:39:01.740Z,91.03
2018-01-25T03:40:01.759Z,91.60
2018-01-25T03:41:01.774Z,91.31
2018-01-25T03:42:01.789Z,92.08
2018-01-25T03:43:01.827Z,93.03
2018-01-25T03:44:01.827Z,92.60
2018-01-25T03:45:01.840Z,92.69
2018-01-25T03:46:01.856Z,92.50
2018-01-25T03:47:01.875Z,92.32
2018-01-25T03:48:01.892Z,93.27
2018-01-25T03:49:01.907Z,92.98
2018-01-25T03:50:01.925Z,92.27
2018-01-25T03:51:01.942Z,92.32
2018-01-25T03:52:01.958Z,92.79
2018-01-25T03:53:01.979Z,92.32
2018-01-25T03:54:01.990Z,93.17
2018-01-25T03:55:02.011Z,93.17
2018-01-25T03:56:02.027Z,92.69
2018-01-25T03:57:02.037Z,93.46
2018-01-25T03:58:02.055Z,94.32
2018-01-25T03:59:02.075Z,94.56
2018-01-25T04:00:02.089Z,94.65
2018-01-25T04:01:02.104Z,94.03
2018-01-25T04:02:02.120Z,94.08
2018-01-25T04:03:02.142Z,94.37
2018-01-25T04:04:02.160Z,94.03
2018-01-25T04:05:02.169Z,94.08
2018-01-25T04:06:02.193Z,94.65
2018-01-25T04:07:02.203Z,95.03
2018-01-25T04:08:02.218Z,94.93
2018-01-25T04:09:02.233Z,94.89
2018-01-25T04:10:02.251Z,94.65
2018-01-25T04:11:02.268Z,94.41
2018-01-25T04:12:02.283Z,94.13
2018-01-25T04:13:02.300Z,94.32
2018-01-25T04:14:02.317Z,93.93
2018-01-25T04:15:02.332Z,93.65
2018-01-25T04:16:02.351Z,93.84
2018-01-25T04:17:02.363Z,93.84
2018-01-25T04:18:02.382Z,93.37
2018-01-25T04:19:02.401Z,93.60
2018-01-25T04:20:02.411Z,94.13
2018-01-25T04:21:02.428Z,94.17
2018-01-25T04:22:02.445Z,93.55
2018-01-25T04:23:02.463Z,93.46
2018-01-25T04:24:02.478Z,93.08
2018-01-25T04:25:02.493Z,93.08
2018-01-25T04:26:02.511Z,93.79
2018-01-25T04:27:02.525Z,94.37
2018-01-25T04:28:02.543Z,94.08
2018-01-25T04:29:02.558Z,93.46
2018-01-25T04:30:02.574Z,93.32
2018-01-25T04:31:02.592Z,93.93
2018-01-25T04:32:02.608Z,94.27
2018-01-25T04:33:02.631Z,94.84
2018-01-25T04:34:02.642Z,95.22
2018-01-25T04:35:02.656Z,95.32
2018-01-25T04:36:02.675Z,94.74
2018-01-25T04:37:02.687Z,94.93
2018-01-25T04:38:02.704Z,95.41
2018-01-25T04:39:02.725Z,96.08
2018-01-25T04:40:02.735Z,95.41
2018-01-25T04:41:02.781Z,94.84
2018-01-25T04:42:02.773Z,95.32
2018-01-25T04:43:02.784Z,94.37
2018-01-25T04:44:02.802Z,94.74
2018-01-25T04:45:02.818Z,94.37
2018-01-25T04:46:02.831Z,94.37
2018-01-25T04:47:02.847Z,94.08
2018-01-25T04:48:02.865Z,93.94
2018-01-25T04:49:02.878Z,93.94
2018-01-25T04:50:02.896Z,94.03
2018-01-25T04:51:02.910Z,93.84
2018-01-25T04:52:02.937Z,95.03
2018-01-25T04:53:02.944Z,94.17
2018-01-25T04:54:02.962Z,94.03
2018-01-25T04:55:02.980Z,94.70
2018-01-25T04:56:02.990Z,94.79
2018-01-25T04:57:03.006Z,94.70
2018-01-25T04:58:03.024Z,94.60
2018-01-25T04:59:03.039Z,93.94
2018-01-25T05:00:03.056Z,93.74
2018-01-25T05:01:03.070Z,93.37
2018-01-25T05:02:03.085Z,93.37
2018-01-25T05:03:03.099Z,93.08
2018-01-25T05:04:03.122Z,93.37
2018-01-25T05:05:03.137Z,93.27
2018-01-25T05:06:03.150Z,92.60
2018-01-25T05:07:03.166Z,92.89
2018-01-25T05:08:03.181Z,92.51
2018-01-25T05:09:03.202Z,92.89
2018-01-25T05:10:03.214Z,92.13
2018-01-25T05:11:03.236Z,92.51
2018-01-25T05:12:03.245Z,92.22
2018-01-25T05:13:03.260Z,91.84
2018-01-25T05:14:03.275Z,91.08
2018-01-25T05:15:03.293Z,91.27
2018-01-25T05:16:03.309Z,91.08
2018-01-25T05:17:03.328Z,91.08
2018-01-25T05:18:03.339Z,91.65
2018-01-25T05:19:03.357Z,91.75
2018-01-25T05:20:03.370Z,91.75
2018-01-25T05:21:03.385Z,91.37
2018-01-25T05:22:03.401Z,91.56
2018-01-25T05:23:03.418Z,91.08
2018-01-25T05:24:03.431Z,90.89
2018-01-25T05:25:03.448Z,90.89
2018-01-25T05:26:03.464Z,90.61
2018-01-25T05:27:03.478Z,90.80
2018-01-25T05:28:03.497Z,90.03
2018-01-25T05:29:03.514Z,89.75
2018-01-25T05:30:03.528Z,90.70
2018-01-25T05:31:03.543Z,89.94
2018-01-25T05:32:03.556Z,90.51
2018-01-25T05:33:03.570Z,90.42
2018-01-25T05:34:03.589Z,91.22
2018-01-25T05:35:03.604Z,91.08
2018-01-25T05:36:03.619Z,91.42
2018-01-25T05:37:03.635Z,91.42
2018-01-25T05:38:03.651Z,91.27
2018-01-25T05:39:03.669Z,91.84
2018-01-25T05:40:03.685Z,91.61
2018-01-25T05:41:03.696Z,92.65
2018-01-25T05:42:03.716Z,92.18
2018-01-25T05:43:03.732Z,92.32
2018-01-25T05:44:03.744Z,92.08
2018-01-25T05:45:03.760Z,92.75
2018-01-25T05:46:03.778Z,91.84
2018-01-25T05:47:03.791Z,91.08
2018-01-25T05:48:03.807Z,91.65
2018-01-25T05:49:03.896Z,90.99
2018-01-25T05:50:03.844Z,91.08
2018-01-25T05:51:03.854Z,91.65
2018-01-25T05:52:03.869Z,91.08
2018-01-25T05:53:03.888Z,91.46
2018-01-25T05:54:03.900Z,91.27
2018-01-25T05:55:03.921Z,91.75
2018-01-25T05:56:03.933Z,91.65
2018-01-25T05:57:03.946Z,91.84
2018-01-25T05:58:03.964Z,92.51
2018-01-25T05:59:03.981Z,92.60
2018-01-25T06:00:03.999Z,93.27
2018-01-25T06:01:04.012Z,92.70
2018-01-25T06:02:04.027Z,92.03
2018-01-25T06:03:04.045Z,92.13
2018-01-25T06:04:04.063Z,91.65
2018-01-25T06:05:04.072Z,92.03
2018-01-25T06:06:04.092Z,92.13
2018-01-25T06:07:04.108Z,92.41
2018-01-25T06:08:04.120Z,92.32
2018-01-25T06:09:04.134Z,91.84
2018-01-25T06:10:04.150Z,91.27
2018-01-25T06:11:04.170Z,91.56
2018-01-25T06:12:04.180Z,91.17
2018-01-25T06:13:04.197Z,91.46
2018-01-25T06:14:04.212Z,91.17
2018-01-25T06:15:04.231Z,91.08
2018-01-25T06:16:04.248Z,91.65
2018-01-25T06:17:04.262Z,91.56
2018-01-25T06:18:04.279Z,91.46
2018-01-25T06:19:04.292Z,91.17
2018-01-25T06:20:04.311Z,91.65
2018-01-25T06:21:04.324Z,90.80
2018-01-25T06:22:04.338Z,90.42
2018-01-25T06:23:04.354Z,90.70
2018-01-25T06:24:04.372Z,90.13
2018-01-25T06:25:04.388Z,89.94
2018-01-25T06:26:04.404Z,89.79
2018-01-25T06:27:04.419Z,89.84
2018-01-25T06:28:04.433Z,89.98
2018-01-25T06:29:04.453Z,89.89
2018-01-25T06:30:04.463Z,89.51
2018-01-25T06:31:04.489Z,89.56
2018-01-25T06:32:04.498Z,89.94
2018-01-25T06:33:04.512Z,90.32
2018-01-25T06:34:04.528Z,90.13
2018-01-25T06:35:04.545Z,90.99
2018-01-25T06:36:04.560Z,90.89
2018-01-25T06:37:04.574Z,91.17
2018-01-25T06:38:04.591Z,91.56
2018-01-25T06:39:04.610Z,91.46
2018-01-25T06:40:04.625Z,91.27
2018-01-25T06:41:04.638Z,91.46
2018-01-25T06:42:04.652Z,91.37
2018-01-25T06:43:04.676Z,90.89
2018-01-25T06:44:04.684Z,90.89
2018-01-25T06:45:04.704Z,91.46
2018-01-25T06:46:04.729Z,90.89
2018-01-25T06:47:04.734Z,90.61
2018-01-25T06:48:04.748Z,90.89
2018-01-25T06:49:04.765Z,90.32
2018-01-25T06:50:04.779Z,90.70
2018-01-25T06:51:04.795Z,90.80
2018-01-25T06:52:04.815Z,90.03
2018-01-25T06:53:04.830Z,89.94
2018-01-25T06:54:04.846Z,90.03
2018-01-25T06:55:04.859Z,89.61
2018-01-25T06:56:04.890Z,89.94
2018-01-25T06:57:04.890Z,89.84
2018-01-25T06:58:04.906Z,89.75
2018-01-25T06:59:04.922Z,89.47
2018-01-25T07:00:04.939Z,89.70
2018-01-25T07:01:04.952Z,89.22
2018-01-25T07:02:04.969Z,89.61
2018-01-25T07:03:04.985Z,89.51
2018-01-25T07:04:05.003Z,89.79
2018-01-25T07:05:05.018Z,88.93
2018-01-25T07:06:05.031Z,89.03
2018-01-25T07:07:05.058Z,89.03
2018-01-25T07:08:05.063Z,88.65
2018-01-25T07:09:05.080Z,88.84
2018-01-25T07:10:05.096Z,88.93
2018-01-25T07:11:05.114Z,88.75
2018-01-25T07:12:05.130Z,88.46
2018-01-25T07:13:05.143Z,88.75
2018-01-25T07:14:05.158Z,88.37
2018-01-25T07:15:05.178Z,88.18
2018-01-25T07:16:05.193Z,88.60
2018-01-25T07:17:05.205Z,88.75
2018-01-25T07:18:05.229Z,89.22
2018-01-25T07:19:05.239Z,89.13
2018-01-25T07:20:05.254Z,89.03
2018-01-25T07:21:05.270Z,88.75
2018-01-25T07:22:05.285Z,89.03
2018-01-25T07:23:05.303Z,88.51
2018-01-25T07:24:05.320Z,88.93
2018-01-25T07:25:05.335Z,88.65
2018-01-25T07:26:05.356Z,88.84
2018-01-25T07:27:05.369Z,89.18
2018-01-25T07:28:05.383Z,89.70
2018-01-25T07:29:05.398Z,89.61
2018-01-25T07:30:05.415Z,89.41
2018-01-25T07:31:05.430Z,89.84
2018-01-25T07:32:05.446Z,89.84
2018-01-25T07:33:05.462Z,90.46
2018-01-25T07:34:05.475Z,90.46
2018-01-25T07:35:05.545Z,89.32
2018-01-25T07:36:05.509Z,89.41
2018-01-25T07:37:05.527Z,90.08
2018-01-25T07:38:05.541Z,90.22
2018-01-25T07:39:05.557Z,90.13
2018-01-25T07:40:05.574Z,90.51
2018-01-25T07:41:05.587Z,89.84
2018-01-25T07:42:05.606Z,90.03
2018-01-25T07:43:05.619Z,90.08
2018-01-25T07:44:05.636Z,90.17
2018-01-25T07:45:05.653Z,90.17
2018-01-25T07:46:05.666Z,89.89
2018-01-25T07:47:05.683Z,90.17
2018-01-25T07:48:05.700Z,89.79
2018-01-25T07:49:05.714Z,89.98
2018-01-25T07:50:05.735Z,90.17
2018-01-25T07:51:05.746Z,90.13
2018-01-25T07:52:05.764Z,90.51
2018-01-25T07:53:05.780Z,90.89
2018-01-25T07:54:05.793Z,90.70
2018-01-25T07:55:05.809Z,90.70
2018-01-25T07:56:05.826Z,90.51
2018-01-25T07:57:05.841Z,90.80
2018-01-25T07:58:05.857Z,89.98
2018-01-25T07:59:05.876Z,89.70
2018-01-25T08:00:05.890Z,90.17
2018-01-25T08:01:05.909Z,89.32
2018-01-25T08:02:05.919Z,89.41
2018-01-25T08:03:05.938Z,89.32
2018-01-25T08:04:05.953Z,89.41
2018-01-25T08:05:05.971Z,89.61
2018-01-25T08:06:05.986Z,90.32
2018-01-25T08:07:05.998Z,89.98
2018-01-25T08:08:06.017Z,90.51
2018-01-25T08:09:06.032Z,90.56
2018-01-25T08:10:06.048Z,89.98
2018-01-25T08:11:06.065Z,90.46
2018-01-25T08:12:06.079Z,90.42
2018-01-25T08:13:06.095Z,90.51
2018-01-25T08:14:06.111Z,90.36
2018-01-25T08:15:06.132Z,90.99
2018-01-25T08:16:06.144Z,91.65
2018-01-25T08:17:06.160Z,91.60
2018-01-25T08:18:06.179Z,90.94
2018-01-25T08:19:06.191Z,90.61
2018-01-25T08:20:06.207Z,90.84
2018-01-25T08:21:06.224Z,90.17
2018-01-25T08:22:06.240Z,90.36
2018-01-25T08:23:06.256Z,89.89
2018-01-25T08:24:06.271Z,89.89
2018-01-25T08:25:06.290Z,90.27
2018-01-25T08:26:06.303Z,89.51
2018-01-25T08:27:06.322Z,89.41
2018-01-25T08:28:06.334Z,89.61
2018-01-25T08:29:06.352Z,89.51
2018-01-25T08:30:06.368Z,89.70
2018-01-25T08:31:06.382Z,89.70
2018-01-25T08:32:06.405Z,88.75
2018-01-25T08:33:06.419Z,88.84
2018-01-25T08:34:06.429Z,88.56
2018-01-25T08:35:06.451Z,87.93
2018-01-25T08:36:06.464Z,88.27
2018-01-25T08:37:06.478Z,88.31
2018-01-25T08:38:06.495Z,88.27
2018-01-25T08:39:06.512Z,87.65
2018-01-25T08:40:06.533Z,87.74
2018-01-25T08:41:06.544Z,88.08
2018-01-25T08:42:06.561Z,88.08
2018-01-25T08:43:06.576Z,87.60
2018-01-25T08:44:06.593Z,87.84
2018-01-25T08:45:06.608Z,87.84
2018-01-25T08:46:06.624Z,87.84
2018-01-25T08:47:07.628Z,87.36
2018-01-25T08:48:06.657Z,87.17
2018-01-25T08:49:06.680Z,87.27
2018-01-25T08:50:06.692Z,87.74
2018-01-25T08:51:06.707Z,87.07
2018-01-25T08:52:06.729Z,87.17
2018-01-25T08:53:06.751Z,87.46
2018-01-25T08:54:06.758Z,87.93
2018-01-25T08:55:06.776Z,87.27
2018-01-25T08:56:06.790Z,87.46
2018-01-25T08:57:06.801Z,87.65
2018-01-25T08:58:06.846Z,86.69
2018-01-25T08:59:06.883Z,86.60
2018-01-25T09:00:06.873Z,86.51
2018-01-25T09:01:06.870Z,86.79
2018-01-25T09:02:06.887Z,86.41
2018-01-25T09:03:06.951Z,86.12
2018-01-25T09:04:06.920Z,86.88
2018-01-25T09:05:06.933Z,86.79
2018-01-25T09:06:06.950Z,86.51
2018-01-25T09:07:06.967Z,86.79
2018-01-25T09:08:06.984Z,86.22
2018-01-25T09:09:06.999Z,86.32
2018-01-25T09:10:07.017Z,86.32
2018-01-25T09:11:07.035Z,85.74
2018-01-25T09:12:07.055Z,85.31
2018-01-25T09:13:07.067Z,85.50
2018-01-25T09:14:07.083Z,85.97
2018-01-25T09:15:07.099Z,85.84
2018-01-25T09:16:07.116Z,85.55
2018-01-25T09:17:07.130Z,85.84
2018-01-25T09:18:07.148Z,85.41
2018-01-25T09:19:07.165Z,85.74
2018-01-25T09:20:07.180Z,85.78
2018-01-25T09:21:07.198Z,85.60
2018-01-25T09:22:07.214Z,85.46
2018-01-25T09:23:07.230Z,85.64
2018-01-25T09:24:07.249Z,86.41
2018-01-25T09:25:07.266Z,87.27
2018-01-25T09:26:07.279Z,88.12
2018-01-25T09:27:07.297Z,87.74
2018-01-25T09:28:07.313Z,87.07
2018-01-25T09:29:07.329Z,86.60
2018-01-25T09:30:07.348Z,85.97
2018-01-25T09:31:07.364Z,85.60
2018-01-25T09:32:07.379Z,85.88
2018-01-25T09:33:07.399Z,85.50
2018-01-25T09:34:07.446Z,85.41
2018-01-25T09:35:07.430Z,85.50
2018-01-25T09:36:07.451Z,85.31
2018-01-25T09:37:07.461Z,85.02
2018-01-25T09:38:07.479Z,85.41
2018-01-25T09:39:07.497Z,84.49
2018-01-25T09:40:07.514Z,84.40
2018-01-25T09:41:07.528Z,84.30
2018-01-25T09:42:07.546Z,83.44
2018-01-25T09:43:07.565Z,83.54
2018-01-25T09:44:07.581Z,82.78
2018-01-25T09:45:07.597Z,82.78
2018-01-25T09:46:07.614Z,83.25
2018-01-25T09:47:07.632Z,83.44
2018-01-25T09:48:07.645Z,83.83
2018-01-25T09:49:07.663Z,83.06
2018-01-25T09:50:07.679Z,82.20
2018-01-25T09:51:07.701Z,82.20
2018-01-25T09:52:07.718Z,82.20
2018-01-25T09:53:07.734Z,82.49
2018-01-25T09:54:07.752Z,82.97
2018-01-25T09:55:07.765Z,83.06
2018-01-25T09:56:07.784Z,83.25
2018-01-25T09:57:07.798Z,83.06
2018-01-25T09:58:07.817Z,82.97
2018-01-25T09:59:07.847Z,82.78
2018-01-25T10:00:07.854Z,83.16
2018-01-25T10:01:07.925Z,83.35
2018-01-25T10:02:07.885Z,83.54
2018-01-25T10:03:07.903Z,83.16
2018-01-25T10:04:07.920Z,82.97
2018-01-25T10:05:07.944Z,83.16
2018-01-25T10:06:07.952Z,83.25
2018-01-25T10:07:07.972Z,82.72
2018-01-25T10:08:07.989Z,83.35
2018-01-25T10:09:08.004Z,84.01
2018-01-25T10:10:08.025Z,82.87
2018-01-25T10:11:08.039Z,82.11
2018-01-25T10:12:08.059Z,81.86
2018-01-25T10:13:08.074Z,82.11
2018-01-25T10:14:08.094Z,82.49
2018-01-25T10:15:08.107Z,82.11
2018-01-25T10:16:08.125Z,82.78
2018-01-25T10:17:08.139Z,82.49
2018-01-25T10:18:08.158Z,83.16
2018-01-25T10:19:08.175Z,83.06
2018-01-25T10:20:08.192Z,83.25
2018-01-25T10:21:08.256Z,82.83
2018-01-25T10:22:08.232Z,82.97
2018-01-25T10:23:08.243Z,83.06
2018-01-25T10:24:08.258Z,83.06
2018-01-25T10:25:08.293Z,82.49
2018-01-25T10:26:08.297Z,82.11
2018-01-25T10:27:08.313Z,82.30
2018-01-25T10:28:08.329Z,82.01
2018-01-25T10:29:08.351Z,81.63
2018-01-25T10:30:08.362Z,82.11
2018-01-25T10:31:08.381Z,82.11
2018-01-25T10:32:08.398Z,82.11
2018-01-25T10:33:08.411Z,81.44
2018-01-25T10:34:08.431Z,81.82
2018-01-25T10:35:08.489Z,81.20
2018-01-25T10:36:08.465Z,81.25
2018-01-25T10:37:08.482Z,80.68
2018-01-25T10:38:08.500Z,80.20
2018-01-25T10:39:08.517Z,80.30
2018-01-25T10:40:08.540Z,81.40
2018-01-25T10:41:08.551Z,82.40
2018-01-25T10:42:08.571Z,81.63
2018-01-25T10:43:08.586Z,80.81
2018-01-25T10:44:08.602Z,80.11
2018-01-25T10:45:08.650Z,80.68
2018-01-25T10:46:08.640Z,80.68
2018-01-25T10:47:08.656Z,80.96
2018-01-25T10:48:08.673Z,80.49
2018-01-25T10:49:08.688Z,79.72
2018-01-25T10:50:08.705Z,80.39
2018-01-25T10:51:08.724Z,80.30
2018-01-25T10:52:08.741Z,80.01
2018-01-25T10:53:08.757Z,79.35
2018-01-25T10:54:08.774Z,79.44
2018-01-25T10:55:08.794Z,79.82
2018-01-25T10:56:08.808Z,80.11
2018-01-25T10:57:08.824Z,79.82
2018-01-25T10:58:08.842Z,79.91
2018-01-25T10:59:08.861Z,79.38
2018-01-25T11:00:08.879Z,79.38
2018-01-25T11:01:08.897Z,78.81
2018-01-25T11:02:08.910Z,78.91
2018-01-25T11:03:08.931Z,78.52
2018-01-25T11:04:08.945Z,78.62
2018-01-25T11:05:08.962Z,79.04
2018-01-25T11:06:08.979Z,79.10
2018-01-25T11:07:08.997Z,78.72
2018-01-25T11:08:09.013Z,79.00
2018-01-25T11:09:09.032Z,79.43
2018-01-25T11:10:09.050Z,78.94
2018-01-25T11:11:09.071Z,78.28
2018-01-25T11:12:09.086Z,78.14
2018-01-25T11:13:09.098Z,78.91
2018-01-25T11:14:09.117Z,80.53
2018-01-25T11:15:09.134Z,79.86
2018-01-25T11:16:09.156Z,79.48
2018-01-25T11:17:09.168Z,79.28
2018-01-25T11:18:09.187Z,78.91
2018-01-25T11:19:09.206Z,79.19
2018-01-25T11:20:09.221Z,78.91
2018-01-25T11:21:09.243Z,78.18
2018-01-25T11:22:09.257Z,78.37
2018-01-25T11:23:09.275Z,77.76
2018-01-25T11:24:09.290Z,78.23
2018-01-25T11:25:09.310Z,78.52
2018-01-25T11:26:09.329Z,78.81
2018-01-25T11:27:09.346Z,79.00
2018-01-25T11:28:09.361Z,78.37
2018-01-25T11:29:09.378Z,77.51
2018-01-25T11:30:09.398Z,78.18
2018-01-25T11:31:09.413Z,78.28
2018-01-25T11:32:09.430Z,77.47
2018-01-25T11:33:09.447Z,77.28
2018-01-25T11:34:09.465Z,77.57
2018-01-25T11:35:09.501Z,77.47
2018-01-25T11:36:09.503Z,77.86
2018-01-25T11:37:09.517Z,78.05
2018-01-25T11:38:09.536Z,78.14
2018-01-25T11:39:09.554Z,78.23
2018-01-25T11:40:09.576Z,78.14
2018-01-25T11:41:09.586Z,78.14
2018-01-25T11:42:09.604Z,78.43
2018-01-25T11:43:09.619Z,78.33
2018-01-25T11:44:09.641Z,77.80
2018-01-25T11:45:09.655Z,77.80
2018-01-25T11:46:09.672Z,77.51
2018-01-25T11:47:09.748Z,78.05
2018-01-25T11:48:09.706Z,77.99
2018-01-25T11:49:09.757Z,77.99
2018-01-25T11:50:09.743Z,77.99
2018-01-25T11:51:09.762Z,78.66
2018-01-25T11:52:09.780Z,79.28
2018-01-25T11:53:09.845Z,80.05
2018-01-25T11:54:09.821Z,81.82
2018-01-25T11:55:09.829Z,82.20
2018-01-25T11:56:09.847Z,82.11
2018-01-25T11:57:09.864Z,82.78
2018-01-25T11:58:09.882Z,82.97
2018-01-25T11:59:09.899Z,82.53
2018-01-25T12:00:09.926Z,81.77
2018-01-25T12:01:09.932Z,81.38
2018-01-25T12:02:10.036Z,82.01
2018-01-25T12:03:09.969Z,82.01
2018-01-25T12:04:09.986Z,83.25
2018-01-25T12:05:10.004Z,84.40
2018-01-25T12:06:10.020Z,84.45
2018-01-25T12:07:10.039Z,84.11
2018-01-25T12:08:10.053Z,83.06
2018-01-25T12:09:10.070Z,82.11
2018-01-25T12:10:10.097Z,82.15
2018-01-25T12:11:10.105Z,82.87
2018-01-25T12:12:10.122Z,83.83
2018-01-25T12:13:10.142Z,83.54
2018-01-25T12:14:10.162Z,83.35
2018-01-25T12:15:10.173Z,82.97
2018-01-25T12:16:10.209Z,84.30
2018-01-25T12:17:10.209Z,84.40
2018-01-25T12:18:10.227Z,84.59
2018-01-25T12:19:10.244Z,83.73
2018-01-25T12:20:10.262Z,83.44
2018-01-25T12:21:10.275Z,83.44
2018-01-25T12:22:10.293Z,82.59
2018-01-25T12:23:10.310Z,82.68
2018-01-25T12:24:10.329Z,82.43
2018-01-25T12:25:10.346Z,82.06
2018-01-25T12:26:10.368Z,81.82
2018-01-25T12:27:10.381Z,82.24
2018-01-25T12:28:10.398Z,82.15
2018-01-25T12:29:10.414Z,81.82
2018-01-25T12:30:10.432Z,82.40
2018-01-25T12:31:10.451Z,82.20
2018-01-25T12:32:10.467Z,82.11
2018-01-25T12:33:10.481Z,82.63
2018-01-25T12:34:10.503Z,82.15
2018-01-25T12:35:10.516Z,81.96
2018-01-25T12:36:10.534Z,82.53
2018-01-25T12:37:10.554Z,82.15
2018-01-25T12:38:10.571Z,82.24
2018-01-25T12:39:10.586Z,82.43
2018-01-25T12:40:10.606Z,81.67
2018-01-25T12:41:10.621Z,81.77
2018-01-25T12:42:10.640Z,81.86
2018-01-25T12:43:10.657Z,81.77
2018-01-25T12:44:10.673Z,81.58
2018-01-25T12:45:10.690Z,81.48
2018-01-25T12:46:10.708Z,81.58
2018-01-25T12:47:10.724Z,81.86
2018-01-25T12:48:10.741Z,81.58
2018-01-25T12:49:10.759Z,82.06
2018-01-25T12:50:10.784Z,81.86
2018-01-25T12:51:10.795Z,81.24
2018-01-25T12:52:10.811Z,81.10
2018-01-25T12:53:10.828Z,81.29